Terminal Aerodrome Forecast
Issued by NWS

Home | Current Version | Previous Version | Text Only | Print | Product List | Glossary On
Versions: 1 2 3 4 5 6 7 8 9 10 11 12
000
FTUS45 KVEF 241700
TAFEED
TAF
KEED 241720Z 2418/2518 VRB05KT P6SM FEW150
     FM242000 19010G18KT P6SM SCT150
     FM250200 23011KT P6SM SCT150
     FM250700 19015G25KT P6SM BKN150=

USA.gov is the U.S. government's official web portal to all federal, state and local government web resources and services.